sensor_id;sensor_type;location;lat;lon;timestamp;pressure;altitude;pressure_sealevel;temperature;humidity
14120;BME280;7138;49.246;9.100;2023-05-08T00:01:47;98972.50;;;17.66;nan
14120;BME280;7138;49.246;9.100;2023-05-08T00:04:14;98974.19;;;17.67;nan
14120;BME280;7138;49.246;9.100;2023-05-08T00:06:40;98973.25;;;17.69;nan
14120;BME280;7138;49.246;9.100;2023-05-08T00:09:05;98979.34;;;17.70;nan
14120;BME280;7138;49.246;9.100;2023-05-08T00:11:31;98978.47;;;17.71;nan
14120;BME280;7138;49.246;9.100;2023-05-08T00:13:57;98982.81;;;17.72;nan
14120;BME280;7138;49.246;9.100;2023-05-08T00:16:23;98978.47;;;17.71;nan
14120;BME280;7138;49.246;9.100;2023-05-08T00:18:50;98976.72;;;17.71;nan
14120;BME280;7138;49.246;9.100;2023-05-08T00:21:18;98976.72;;;17.70;nan
14120;BME280;7138;49.246;9.100;2023-05-08T00:23:43;98975.91;;;17.68;nan
14120;BME280;7138;49.246;9.100;2023-05-08T00:26:10;98975.06;;;17.67;nan
14120;BME280;7138;49.246;9.100;2023-05-08T00:28:35;98977.66;;;17.67;nan
14120;BME280;7138;49.246;9.100;2023-05-08T00:31:01;98981.16;;;17.68;nan
14120;BME280;7138;49.246;9.100;2023-05-08T00:33:27;98973.38;;;17.65;nan
14120;BME280;7138;49.246;9.100;2023-05-08T00:36:02;98954.44;;;17.54;nan
14120;BME280;7138;49.246;9.100;2023-05-08T00:38:30;98969.09;;;17.61;nan
14120;BME280;7138;49.246;9.100;2023-05-08T00:40:56;98973.44;;;17.62;nan
14120;BME280;7138;49.246;9.100;2023-05-08T00:43:21;98976.09;;;17.60;nan
14120;BME280;7138;49.246;9.100;2023-05-08T00:45:58;98983.03;;;17.63;nan
14120;BME280;7138;49.246;9.100;2023-05-08T00:48:30;98980.34;;;17.64;nan
14120;BME280;7138;49.246;9.100;2023-05-08T00:50:57;98986.44;;;17.65;nan
14120;BME280;7138;49.246;9.100;2023-05-08T00:53:28;98985.50;;;17.67;nan
14120;BME280;7138;49.246;9.100;2023-05-08T00:55:55;98988.25;;;17.63;nan
14120;BME280;7138;49.246;9.100;2023-05-08T00:58:24;98983.09;;;17.60;nan
14120;BME280;7138;49.246;9.100;2023-05-08T01:00:55;98989.88;;;17.67;nan
14120;BME280;7138;49.246;9.100;2023-05-08T01:03:23;98999.38;;;17.71;nan
14120;BME280;7138;49.246;9.100;2023-05-08T01:05:49;98992.50;;;17.67;nan
14120;BME280;7138;49.246;9.100;2023-05-08T01:08:15;99006.28;;;17.73;nan
14120;BME280;7138;49.246;9.100;2023-05-08T01:10:56;99001.88;;;17.75;nan
14120;BME280;7138;49.246;9.100;2023-05-08T01:13:34;99000.16;;;17.74;nan
14120;BME280;7138;49.246;9.100;2023-05-08T01:16:13;99004.47;;;17.75;nan
14120;BME280;7138;49.246;9.100;2023-05-08T01:18:46;99008.09;;;17.71;nan
14120;BME280;7138;49.246;9.100;2023-05-08T01:21:26;99000.31;;;17.68;nan
14120;BME280;7138;49.246;9.100;2023-05-08T01:24:31;99001.19;;;17.69;nan
14120;BME280;7138;49.246;9.100;2023-05-08T01:27:39;99009.91;;;17.68;nan
14120;BME280;7138;49.246;9.100;2023-05-08T01:30:53;99006.50;;;17.66;nan
14120;BME280;7138;49.246;9.100;2023-05-08T01:33:29;99017.84;;;17.65;nan
14120;BME280;7138;49.246;9.100;2023-05-08T01:36:08;99006.44;;;17.67;nan
14120;BME280;7138;49.246;9.100;2023-05-08T01:38:48;99010.72;;;17.70;nan
14120;BME280;7138;49.246;9.100;2023-05-08T01:41:25;99009.03;;;17.69;nan
14120;BME280;7138;49.246;9.100;2023-05-08T01:44:06;99018.56;;;17.70;nan
14120;BME280;7138;49.246;9.100;2023-05-08T01:46:35;99014.25;;;17.69;nan
14120;BME280;7138;49.246;9.100;2023-05-08T01:49:08;99015.88;;;17.73;nan
14120;BME280;7138;49.246;9.100;2023-05-08T01:51:39;99014.25;;;17.69;nan
14120;BME280;7138;49.246;9.100;2023-05-08T01:54:11;99018.50;;;17.73;nan
14120;BME280;7138;49.246;9.100;2023-05-08T01:56:43;99025.47;;;17.72;nan
14120;BME280;7138;49.246;9.100;2023-05-08T01:59:15;99019.41;;;17.72;nan
14120;BME280;7138;49.246;9.100;2023-05-08T02:01:44;99027.34;;;17.69;nan
14120;BME280;7138;49.246;9.100;2023-05-08T02:04:14;99024.81;;;17.66;nan
14120;BME280;7138;49.246;9.100;2023-05-08T02:06:41;99031.88;;;17.61;nan
14120;BME280;7138;49.246;9.100;2023-05-08T02:09:10;99033.75;;;17.56;nan
14120;BME280;7138;49.246;9.100;2023-05-08T02:11:38;99030.44;;;17.46;nan
14120;BME280;7138;49.246;9.100;2023-05-08T02:14:06;99033.13;;;17.43;nan
14120;BME280;7138;49.246;9.100;2023-05-08T02:16:35;99026.25;;;17.39;nan
14120;BME280;7138;49.246;9.100;2023-05-08T02:19:04;99029.84;;;17.35;nan
14120;BME280;7138;49.246;9.100;2023-05-08T02:21:34;99029.00;;;17.33;nan
14120;BME280;7138;49.246;9.100;2023-05-08T02:24:02;99025.56;;;17.32;nan
14120;BME280;7138;49.246;9.100;2023-05-08T02:26:30;99029.91;;;17.32;nan
14120;BME280;7138;49.246;9.100;2023-05-08T02:28:59;99029.84;;;17.33;nan
14120;BME280;7138;49.246;9.100;2023-05-08T02:31:28;99034.19;;;17.34;nan
14120;BME280;7138;49.246;9.100;2023-05-08T02:33:55;99036.00;;;17.32;nan
14120;BME280;7138;49.246;9.100;2023-05-08T02:36:22;99031.69;;;17.30;nan
14120;BME280;7138;49.246;9.100;2023-05-08T02:38:55;99038.63;;;17.32;nan
14120;BME280;7138;49.246;9.100;2023-05-08T02:41:28;99030.72;;;17.34;nan
14120;BME280;7138;49.246;9.100;2023-05-08T02:43:55;99037.69;;;17.35;nan
14120;BME280;7138;49.246;9.100;2023-05-08T02:46:35;99035.88;;;17.38;nan
14120;BME280;7138;49.246;9.100;2023-05-08T02:49:11;99034.16;;;17.36;nan
14120;BME280;7138;49.246;9.100;2023-05-08T02:51:52;99037.63;;;17.38;nan
14120;BME280;7138;49.246;9.100;2023-05-08T02:54:31;99040.19;;;17.39;nan
14120;BME280;7138;49.246;9.100;2023-05-08T02:57:04;99027.38;;;17.27;nan
14120;BME280;7138;49.246;9.100;2023-05-08T02:59:38;99037.75;;;17.32;nan
14120;BME280;7138;49.246;9.100;2023-05-08T03:02:12;99034.22;;;17.33;nan
14120;BME280;7138;49.246;9.100;2023-05-08T03:04:47;99033.34;;;17.34;nan
14120;BME280;7138;49.246;9.100;2023-05-08T03:07:15;99033.31;;;17.35;nan
14120;BME280;7138;49.246;9.100;2023-05-08T03:09:44;99030.63;;;17.38;nan
14120;BME280;7138;49.246;9.100;2023-05-08T03:12:16;99025.34;;;17.40;nan
14120;BME280;7138;49.246;9.100;2023-05-08T03:14:55;99029.66;;;17.42;nan
14120;BME280;7138;49.246;9.100;2023-05-08T03:17:27;99025.34;;;17.40;nan
14120;BME280;7138;49.246;9.100;2023-05-08T03:19:59;99034.00;;;17.43;nan
14120;BME280;7138;49.246;9.100;2023-05-08T03:22:29;99037.50;;;17.42;nan
14120;BME280;7138;49.246;9.100;2023-05-08T03:24:58;99030.78;;;17.32;nan
14120;BME280;7138;49.246;9.100;2023-05-08T03:27:28;99023.06;;;17.26;nan
14120;BME280;7138;49.246;9.100;2023-05-08T03:29:56;99029.84;;;17.33;nan
14120;BME280;7138;49.246;9.100;2023-05-08T03:32:25;99020.47;;;17.26;nan
14120;BME280;7138;49.246;9.100;2023-05-08T03:34:52;99014.31;;;17.27;nan
14120;BME280;7138;49.246;9.100;2023-05-08T03:37:19;99036.81;;;17.34;nan
14120;BME280;7138;49.246;9.100;2023-05-08T03:39:45;99034.28;;;17.30;nan
14120;BME280;7138;49.246;9.100;2023-05-08T03:42:12;99037.81;;;17.29;nan
14120;BME280;7138;49.246;9.100;2023-05-08T03:44:47;99019.66;;;17.23;nan
14120;BME280;7138;49.246;9.100;2023-05-08T03:47:16;99034.28;;;17.30;nan
14120;BME280;7138;49.246;9.100;2023-05-08T03:49:44;99031.72;;;17.28;nan
14120;BME280;7138;49.246;9.100;2023-05-08T03:52:11;99030.00;;;17.27;nan
14120;BME280;7138;49.246;9.100;2023-05-08T03:54:37;99033.53;;;17.26;nan
14120;BME280;7138;49.246;9.100;2023-05-08T03:57:03;99030.03;;;17.26;nan
14120;BME280;7138;49.246;9.100;2023-05-08T03:59:41;99032.63;;;17.27;nan
14120;BME280;7138;49.246;9.100;2023-05-08T04:02:18;99037.97;;;17.23;nan
14120;BME280;7138;49.246;9.100;2023-05-08T04:04:51;99036.22;;;17.22;nan
14120;BME280;7138;49.246;9.100;2023-05-08T04:07:26;99033.69;;;17.19;nan
14120;BME280;7138;49.246;9.100;2023-05-08T04:10:04;99044.13;;;17.20;nan
14120;BME280;7138;49.246;9.100;2023-05-08T04:12:37;99043.34;;;17.15;nan
14120;BME280;7138;49.246;9.100;2023-05-08T04:15:10;99047.63;;;17.18;nan
14120;BME280;7138;49.246;9.100;2023-05-08T04:17:44;99050.31;;;17.15;nan
14120;BME280;7138;49.246;9.100;2023-05-08T04:20:16;99044.25;;;17.14;nan
14120;BME280;7138;49.246;9.100;2023-05-08T04:22:45;99049.53;;;17.11;nan
14120;BME280;7138;49.246;9.100;2023-05-08T04:25:15;99055.72;;;17.07;nan
14120;BME280;7138;49.246;9.100;2023-05-08T04:27:43;99056.59;;;17.06;nan
14120;BME280;7138;49.246;9.100;2023-05-08T04:30:12;99055.72;;;17.06;nan
14120;BME280;7138;49.246;9.100;2023-05-08T04:32:39;99041.22;;;16.92;nan
14120;BME280;7138;49.246;9.100;2023-05-08T04:35:07;99062.81;;;17.01;nan
14120;BME280;7138;49.246;9.100;2023-05-08T04:37:33;99061.94;;;17.02;nan
14120;BME280;7138;49.246;9.100;2023-05-08T04:40:00;99063.69;;;17.00;nan
14120;BME280;7138;49.246;9.100;2023-05-08T04:42:26;99066.31;;;17.00;nan
14120;BME280;7138;49.246;9.100;2023-05-08T04:44:52;99055.28;;;16.87;nan
14120;BME280;7138;49.246;9.100;2023-05-08T04:47:20;99072.50;;;16.96;nan
14120;BME280;7138;49.246;9.100;2023-05-08T04:49:46;99064.84;;;16.86;nan
14120;BME280;7138;49.246;9.100;2023-05-08T04:52:12;99076.06;;;16.93;nan
14120;BME280;7138;49.246;9.100;2023-05-08T04:54:38;99071.72;;;16.92;nan
14120;BME280;7138;49.246;9.100;2023-05-08T04:57:04;99078.72;;;16.90;nan
14120;BME280;7138;49.246;9.100;2023-05-08T04:59:31;99083.94;;;16.90;nan
14120;BME280;7138;49.246;9.100;2023-05-08T05:01:57;99071.03;;;16.82;nan
14120;BME280;7138;49.246;9.100;2023-05-08T05:04:27;99081.34;;;16.90;nan
14120;BME280;7138;49.246;9.100;2023-05-08T05:06:53;99083.88;;;16.93;nan
14120;BME280;7138;49.246;9.100;2023-05-08T05:09:19;99086.50;;;16.93;nan
14120;BME280;7138;49.246;9.100;2023-05-08T05:11:45;99088.19;;;16.94;nan
14120;BME280;7138;49.246;9.100;2023-05-08T05:14:11;99095.22;;;16.90;nan
14120;BME280;7138;49.246;9.100;2023-05-08T05:16:37;99088.31;;;16.89;nan
14120;BME280;7138;49.246;9.100;2023-05-08T05:19:03;99097.81;;;16.92;nan
14120;BME280;7138;49.246;9.100;2023-05-08T05:21:30;99096.91;;;16.94;nan
14120;BME280;7138;49.246;9.100;2023-05-08T05:23:56;99099.56;;;16.93;nan
14120;BME280;7138;49.246;9.100;2023-05-08T05:26:22;99102.19;;;16.91;nan
14120;BME280;7138;49.246;9.100;2023-05-08T05:28:48;99105.63;;;16.93;nan
14120;BME280;7138;49.246;9.100;2023-05-08T05:31:14;99110.84;;;16.95;nan
14120;BME280;7138;49.246;9.100;2023-05-08T05:33:39;99111.69;;;16.96;nan
14120;BME280;7138;49.246;9.100;2023-05-08T05:36:07;99114.31;;;16.94;nan
14120;BME280;7138;49.246;9.100;2023-05-08T05:38:34;99117.84;;;16.93;nan
14120;BME280;7138;49.246;9.100;2023-05-08T05:41:00;99116.13;;;16.92;nan
14120;BME280;7138;49.246;9.100;2023-05-08T05:43:26;99119.53;;;16.96;nan
14120;BME280;7138;49.246;9.100;2023-05-08T05:45:52;99117.75;;;16.98;nan
14120;BME280;7138;49.246;9.100;2023-05-08T05:48:17;99126.38;;;17.01;nan
14120;BME280;7138;49.246;9.100;2023-05-08T05:50:43;99128.94;;;17.04;nan
14120;BME280;7138;49.246;9.100;2023-05-08T05:53:09;99126.31;;;17.04;nan
14120;BME280;7138;49.246;9.100;2023-05-08T05:55:36;99134.09;;;17.07;nan
14120;BME280;7138;49.246;9.100;2023-05-08T05:58:02;99128.88;;;17.07;nan
14120;BME280;7138;49.246;9.100;2023-05-08T06:00:28;99122.72;;;17.10;nan
14120;BME280;7138;49.246;9.100;2023-05-08T06:02:55;99122.66;;;17.13;nan
14120;BME280;7138;49.246;9.100;2023-05-08T06:05:21;99130.50;;;17.13;nan
14120;BME280;7138;49.246;9.100;2023-05-08T06:07:47;99134.06;;;17.09;nan
14120;BME280;7138;49.246;9.100;2023-05-08T06:10:13;99131.44;;;17.09;nan
14120;BME280;7138;49.246;9.100;2023-05-08T06:12:40;99128.88;;;17.07;nan
14120;BME280;7138;49.246;9.100;2023-05-08T06:15:07;99135.03;;;17.03;nan
14120;BME280;7138;49.246;9.100;2023-05-08T06:17:34;99127.25;;;17.02;nan
14120;BME280;7138;49.246;9.100;2023-05-08T06:20:00;99129.00;;;17.01;nan
14120;BME280;7138;49.246;9.100;2023-05-08T06:22:25;99128.13;;;17.02;nan
14120;BME280;7138;49.246;9.100;2023-05-08T06:24:51;99134.22;;;17.01;nan
14120;BME280;7138;49.246;9.100;2023-05-08T06:27:18;99136.03;;;16.99;nan
14120;BME280;7138;49.246;9.100;2023-05-08T06:29:46;99138.69;;;16.96;nan
14120;BME280;7138;49.246;9.100;2023-05-08T06:32:11;99136.13;;;16.93;nan
14120;BME280;7138;49.246;9.100;2023-05-08T06:34:38;99136.16;;;16.91;nan
14120;BME280;7138;49.246;9.100;2023-05-08T06:37:03;99136.16;;;16.91;nan
14120;BME280;7138;49.246;9.100;2023-05-08T06:39:29;99138.75;;;16.91;nan
14120;BME280;7138;49.246;9.100;2023-05-08T06:41:55;99137.91;;;16.91;nan
14120;BME280;7138;49.246;9.100;2023-05-08T06:44:21;99137.06;;;16.89;nan
14120;BME280;7138;49.246;9.100;2023-05-08T06:46:48;99141.44;;;16.88;nan
14120;BME280;7138;49.246;9.100;2023-05-08T06:49:14;99132.78;;;16.86;nan
14120;BME280;7138;49.246;9.100;2023-05-08T06:51:39;99144.91;;;16.89;nan
14120;BME280;7138;49.246;9.100;2023-05-08T06:54:06;99138.00;;;16.86;nan
14120;BME280;7138;49.246;9.100;2023-05-08T06:56:32;99136.22;;;16.88;nan
14120;BME280;7138;49.246;9.100;2023-05-08T06:58:59;99143.19;;;16.88;nan
14120;BME280;7138;49.246;9.100;2023-05-08T07:01:24;99141.50;;;16.85;nan
14120;BME280;7138;49.246;9.100;2023-05-08T07:03:52;99146.72;;;16.85;nan
14120;BME280;7138;49.246;9.100;2023-05-08T07:06:17;99143.19;;;16.88;nan
14120;BME280;7138;49.246;9.100;2023-05-08T07:08:43;99139.69;;;16.87;nan
14120;BME280;7138;49.246;9.100;2023-05-08T07:11:09;99141.47;;;16.87;nan
14120;BME280;7138;49.246;9.100;2023-05-08T07:13:35;99146.69;;;16.87;nan
14120;BME280;7138;49.246;9.100;2023-05-08T07:16:01;99151.00;;;16.89;nan
14120;BME280;7138;49.246;9.100;2023-05-08T07:18:28;99149.22;;;16.91;nan
14120;BME280;7138;49.246;9.100;2023-05-08T07:20:57;99154.38;;;16.94;nan
14120;BME280;7138;49.246;9.100;2023-05-08T07:23:23;99152.69;;;16.92;nan
14120;BME280;7138;49.246;9.100;2023-05-08T07:25:49;99154.44;;;16.91;nan
14120;BME280;7138;49.246;9.100;2023-05-08T07:28:15;99149.28;;;16.88;nan
14120;BME280;7138;49.246;9.100;2023-05-08T07:30:41;99156.22;;;16.89;nan
14120;BME280;7138;49.246;9.100;2023-05-08T07:33:07;99155.34;;;16.89;nan
14120;BME280;7138;49.246;9.100;2023-05-08T07:35:33;99153.63;;;16.88;nan
14120;BME280;7138;49.246;9.100;2023-05-08T07:38:00;99160.59;;;16.87;nan
14120;BME280;7138;49.246;9.100;2023-05-08T07:40:26;99160.63;;;16.86;nan
14120;BME280;7138;49.246;9.100;2023-05-08T07:42:52;99165.03;;;16.84;nan
14120;BME280;7138;49.246;9.100;2023-05-08T07:45:17;99161.53;;;16.85;nan
14120;BME280;7138;49.246;9.100;2023-05-08T07:47:50;99170.22;;;16.85;nan
14120;BME280;7138;49.246;9.100;2023-05-08T07:50:17;99166.78;;;16.83;nan
14120;BME280;7138;49.246;9.100;2023-05-08T07:52:43;99167.59;;;16.85;nan
14120;BME280;7138;49.246;9.100;2023-05-08T07:55:11;99173.66;;;16.87;nan
14120;BME280;7138;49.246;9.100;2023-05-08T07:57:39;99167.53;;;16.90;nan
14120;BME280;7138;49.246;9.100;2023-05-08T08:00:08;99170.09;;;16.91;nan
14120;BME280;7138;49.246;9.100;2023-05-08T08:02:34;99163.94;;;16.96;nan
14120;BME280;7138;49.246;9.100;2023-05-08T08:05:00;99173.47;;;16.98;nan
14120;BME280;7138;49.246;9.100;2023-05-08T08:07:25;99171.78;;;16.96;nan
14120;BME280;7138;49.246;9.100;2023-05-08T08:09:52;99172.72;;;16.93;nan
14120;BME280;7138;49.246;9.100;2023-05-08T08:12:19;99172.75;;;16.90;nan
14120;BME280;7138;49.246;9.100;2023-05-08T08:14:46;99180.63;;;16.88;nan
14120;BME280;7138;49.246;9.100;2023-05-08T08:17:12;99146.94;;;16.72;nan
14120;BME280;7138;49.246;9.100;2023-05-08T08:19:38;99178.06;;;16.85;nan
14120;BME280;7138;49.246;9.100;2023-05-08T08:22:04;99178.94;;;16.84;nan
14120;BME280;7138;49.246;9.100;2023-05-08T08:24:30;99179.78;;;16.86;nan
14120;BME280;7138;49.246;9.100;2023-05-08T08:26:56;99176.31;;;16.86;nan
14120;BME280;7138;49.246;9.100;2023-05-08T08:29:23;99172.75;;;16.90;nan
14120;BME280;7138;49.246;9.100;2023-05-08T08:31:49;99172.75;;;16.90;nan
14120;BME280;7138;49.246;9.100;2023-05-08T08:34:15;99177.94;;;16.93;nan
14120;BME280;7138;49.246;9.100;2023-05-08T08:36:41;99177.94;;;16.93;nan
14120;BME280;7138;49.246;9.100;2023-05-08T08:39:07;99184.91;;;16.91;nan
14120;BME280;7138;49.246;9.100;2023-05-08T08:41:33;99176.25;;;16.89;nan
14120;BME280;7138;49.246;9.100;2023-05-08T08:43:59;99173.66;;;16.89;nan
14120;BME280;7138;49.246;9.100;2023-05-08T08:46:27;99176.19;;;16.92;nan
14120;BME280;7138;49.246;9.100;2023-05-08T08:48:54;99163.25;;;16.84;nan
14120;BME280;7138;49.246;9.100;2023-05-08T08:51:25;99172.59;;;16.98;nan
14120;BME280;7138;49.246;9.100;2023-05-08T08:54:03;99177.88;;;16.96;nan
14120;BME280;7138;49.246;9.100;2023-05-08T08:56:31;99180.44;;;16.98;nan
14120;BME280;7138;49.246;9.100;2023-05-08T08:58:59;99182.19;;;16.97;nan
14120;BME280;7138;49.246;9.100;2023-05-08T09:01:29;99184.81;;;16.97;nan
14120;BME280;7138;49.246;9.100;2023-05-08T09:03:56;99186.53;;;16.98;nan
14120;BME280;7138;49.246;9.100;2023-05-08T09:06:23;99183.88;;;17.01;nan
14120;BME280;7138;49.246;9.100;2023-05-08T09:08:50;99179.56;;;16.97;nan
14120;BME280;7138;49.246;9.100;2023-05-08T09:11:17;99193.56;;;16.96;nan
14120;BME280;7138;49.246;9.100;2023-05-08T09:13:43;99190.78;;;17.04;nan
14120;BME280;7138;49.246;9.100;2023-05-08T09:16:08;99189.91;;;17.05;nan
14120;BME280;7138;49.246;9.100;2023-05-08T09:18:35;99190.78;;;17.04;nan
14120;BME280;7138;49.246;9.100;2023-05-08T09:21:01;99191.72;;;17.01;nan
14120;BME280;7138;49.246;9.100;2023-05-08T09:23:28;99192.56;;;17.02;nan
14120;BME280;7138;49.246;9.100;2023-05-08T09:25:53;99189.97;;;17.02;nan
14120;BME280;7138;49.246;9.100;2023-05-08T09:28:21;99186.47;;;17.01;nan
14120;BME280;7138;49.246;9.100;2023-05-08T09:30:49;99192.50;;;17.05;nan
14120;BME280;7138;49.246;9.100;2023-05-08T09:33:19;99188.91;;;17.10;nan
14120;BME280;7138;49.246;9.100;2023-05-08T09:35:47;99190.56;;;17.16;nan
14120;BME280;7138;49.246;9.100;2023-05-08T09:38:36;99181.66;;;17.26;nan
14120;BME280;7138;49.246;9.100;2023-05-08T09:41:08;99185.91;;;17.30;nan
14120;BME280;7138;49.246;9.100;2023-05-08T09:43:34;99191.00;;;17.37;nan
14120;BME280;7138;49.246;9.100;2023-05-08T09:46:20;99192.47;;;17.51;nan
14120;BME280;7138;49.246;9.100;2023-05-08T09:48:49;99189.81;;;17.52;nan
14120;BME280;7138;49.246;9.100;2023-05-08T09:51:17;99199.06;;;17.70;nan
14120;BME280;7138;49.246;9.100;2023-05-08T09:53:43;99204.06;;;17.80;nan
14120;BME280;7138;49.246;9.100;2023-05-08T09:56:09;99202.06;;;17.91;nan
14120;BME280;7138;49.246;9.100;2023-05-08T09:58:38;99207.91;;;18.04;nan
14120;BME280;7138;49.246;9.100;2023-05-08T10:01:05;99199.25;;;18.00;nan
14120;BME280;7138;49.246;9.100;2023-05-08T10:03:45;99205.06;;;18.13;nan
14120;BME280;7138;49.246;9.100;2023-05-08T10:06:12;99211.03;;;18.20;nan
14120;BME280;7138;49.246;9.100;2023-05-08T10:08:40;99204.63;;;18.33;nan
14120;BME280;7138;49.246;9.100;2023-05-08T10:11:13;99206.16;;;18.41;nan
14120;BME280;7138;49.246;9.100;2023-05-08T10:13:40;99206.09;;;18.44;nan
14120;BME280;7138;49.246;9.100;2023-05-08T10:16:11;99205.91;;;18.53;nan
14120;BME280;7138;49.246;9.100;2023-05-08T10:18:42;99204.81;;;18.62;nan
14120;BME280;7138;49.246;9.100;2023-05-08T10:21:10;99194.91;;;18.73;nan
14120;BME280;7138;49.246;9.100;2023-05-08T10:23:40;99193.78;;;18.83;nan
14120;BME280;7138;49.246;9.100;2023-05-08T10:26:12;99191.00;;;18.89;nan
14120;BME280;7138;49.246;9.100;2023-05-08T10:28:43;99196.94;;;18.96;nan
14120;BME280;7138;49.246;9.100;2023-05-08T10:31:17;99193.38;;;18.98;nan
14120;BME280;7138;49.246;9.100;2023-05-08T10:33:45;99185.47;;;19.00;nan
14120;BME280;7138;49.246;9.100;2023-05-08T10:36:15;99195.63;;;19.12;nan
14120;BME280;7138;49.246;9.100;2023-05-08T10:38:42;99191.13;;;19.17;nan
14120;BME280;7138;49.246;9.100;2023-05-08T10:41:09;99199.81;;;19.19;nan
14120;BME280;7138;49.246;9.100;2023-05-08T10:43:41;99193.75;;;19.17;nan
14120;BME280;7138;49.246;9.100;2023-05-08T10:46:15;99197.31;;;19.15;nan
14120;BME280;7138;49.246;9.100;2023-05-08T10:48:50;99193.78;;;19.16;nan
14120;BME280;7138;49.246;9.100;2023-05-08T10:51:26;99199.00;;;19.17;nan
14120;BME280;7138;49.246;9.100;2023-05-08T10:54:08;99199.81;;;19.19;nan
14120;BME280;7138;49.246;9.100;2023-05-08T10:56:37;99198.91;;;19.20;nan
14120;BME280;7138;49.246;9.100;2023-05-08T10:59:05;99180.81;;;19.11;nan
14120;BME280;7138;49.246;9.100;2023-05-08T11:01:31;99199.69;;;19.24;nan
14120;BME280;7138;49.246;9.100;2023-05-08T11:03:56;99186.53;;;19.25;nan
14120;BME280;7138;49.246;9.100;2023-05-08T11:06:44;99191.59;;;19.31;nan
14120;BME280;7138;49.246;9.100;2023-05-08T11:09:19;99182.84;;;19.32;nan
14120;BME280;7138;49.246;9.100;2023-05-08T11:11:58;99186.25;;;19.36;nan
14120;BME280;7138;49.246;9.100;2023-05-08T11:14:28;99186.25;;;19.34;nan
14120;BME280;7138;49.246;9.100;2023-05-08T11:17:26;99186.13;;;19.40;nan
14120;BME280;7138;49.246;9.100;2023-05-08T11:19:57;99181.75;;;19.41;nan
14120;BME280;7138;49.246;9.100;2023-05-08T11:22:26;99186.81;;;19.47;nan
14120;BME280;7138;49.246;9.100;2023-05-08T11:25:06;99181.38;;;19.53;nan
14120;BME280;7138;49.246;9.100;2023-05-08T11:28:07;99183.06;;;19.55;nan
14120;BME280;7138;49.246;9.100;2023-05-08T11:30:35;99182.06;;;19.59;nan
14120;BME280;7138;49.246;9.100;2023-05-08T11:33:15;99181.13;;;19.62;nan
14120;BME280;7138;49.246;9.100;2023-05-08T11:35:51;99178.56;;;19.60;nan
14120;BME280;7138;49.246;9.100;2023-05-08T11:38:27;99166.38;;;19.58;nan
14120;BME280;7138;49.246;9.100;2023-05-08T11:41:02;99178.28;;;19.70;nan
14120;BME280;7138;49.246;9.100;2023-05-08T11:43:55;99176.19;;;19.81;nan
14120;BME280;7138;49.246;9.100;2023-05-08T11:46:37;99173.22;;;19.91;nan
14120;BME280;7138;49.246;9.100;2023-05-08T11:49:04;99166.00;;;19.99;nan
14120;BME280;7138;49.246;9.100;2023-05-08T11:51:32;99175.34;;;20.08;nan
14120;BME280;7138;49.246;9.100;2023-05-08T11:53:58;99172.53;;;20.14;nan
14120;BME280;7138;49.246;9.100;2023-05-08T11:56:25;99170.56;;;20.21;nan
14120;BME280;7138;49.246;9.100;2023-05-08T11:59:01;99172.16;;;20.26;nan
14120;BME280;7138;49.246;9.100;2023-05-08T12:01:29;99167.78;;;20.25;nan
14120;BME280;7138;49.246;9.100;2023-05-08T12:04:00;99169.34;;;20.32;nan
14120;BME280;7138;49.246;9.100;2023-05-08T12:06:26;99176.16;;;20.38;nan
14120;BME280;7138;49.246;9.100;2023-05-08T12:08:53;99176.16;;;20.38;nan
14120;BME280;7138;49.246;9.100;2023-05-08T12:11:22;99176.97;;;20.40;nan
14120;BME280;7138;49.246;9.100;2023-05-08T12:13:51;99176.84;;;20.43;nan
14120;BME280;7138;49.246;9.100;2023-05-08T12:16:17;99170.78;;;20.42;nan
14120;BME280;7138;49.246;9.100;2023-05-08T12:18:43;99178.56;;;20.45;nan
14120;BME280;7138;49.246;9.100;2023-05-08T12:21:10;99177.69;;;20.45;nan
14120;BME280;7138;49.246;9.100;2023-05-08T12:23:36;99183.94;;;20.41;nan
14120;BME280;7138;49.246;9.100;2023-05-08T12:26:03;99178.50;;;20.47;nan
14120;BME280;7138;49.246;9.100;2023-05-08T12:28:30;99171.81;;;20.37;nan
14120;BME280;7138;49.246;9.100;2023-05-08T12:31:00;99184.91;;;20.38;nan
14120;BME280;7138;49.246;9.100;2023-05-08T12:33:26;99179.69;;;20.37;nan
14120;BME280;7138;49.246;9.100;2023-05-08T12:35:54;99174.22;;;20.43;nan
14120;BME280;7138;49.246;9.100;2023-05-08T12:38:25;99174.00;;;20.50;nan
14120;BME280;7138;49.246;9.100;2023-05-08T12:40:51;99173.13;;;20.50;nan
14120;BME280;7138;49.246;9.100;2023-05-08T12:43:20;99175.63;;;20.54;nan
14120;BME280;7138;49.246;9.100;2023-05-08T12:45:50;99169.63;;;20.49;nan
14120;BME280;7138;49.246;9.100;2023-05-08T12:48:20;99167.00;;;20.49;nan
14120;BME280;7138;49.246;9.100;2023-05-08T12:50:46;99161.28;;;20.37;nan
14120;BME280;7138;49.246;9.100;2023-05-08T12:53:14;99164.84;;;20.36;nan
14120;BME280;7138;49.246;9.100;2023-05-08T12:55:50;99169.25;;;20.35;nan
14120;BME280;7138;49.246;9.100;2023-05-08T12:58:23;99164.78;;;20.37;nan
14120;BME280;7138;49.246;9.100;2023-05-08T13:00:51;99148.22;;;20.35;nan
14120;BME280;7138;49.246;9.100;2023-05-08T13:03:23;99162.47;;;20.54;nan
14120;BME280;7138;49.246;9.100;2023-05-08T13:05:54;99163.19;;;20.59;nan
14120;BME280;7138;49.246;9.100;2023-05-08T13:08:28;99164.03;;;20.60;nan
14120;BME280;7138;49.246;9.100;2023-05-08T13:10:55;99164.03;;;20.60;nan
14120;BME280;7138;49.246;9.100;2023-05-08T13:13:23;99162.09;;;20.65;nan
14120;BME280;7138;49.246;9.100;2023-05-08T13:15:52;99163.78;;;20.67;nan
14120;BME280;7138;49.246;9.100;2023-05-08T13:18:20;99168.09;;;20.70;nan
14120;BME280;7138;49.246;9.100;2023-05-08T13:20:49;99161.13;;;20.67;nan
14120;BME280;7138;49.246;9.100;2023-05-08T13:23:15;99154.19;;;20.66;nan
14120;BME280;7138;49.246;9.100;2023-05-08T13:25:41;99158.31;;;20.73;nan
14120;BME280;7138;49.246;9.100;2023-05-08T13:28:08;99168.72;;;20.77;nan
14120;BME280;7138;49.246;9.100;2023-05-08T13:30:36;99168.72;;;20.77;nan
14120;BME280;7138;49.246;9.100;2023-05-08T13:33:02;99167.88;;;20.76;nan
14120;BME280;7138;49.246;9.100;2023-05-08T13:35:29;99162.72;;;20.73;nan
14120;BME280;7138;49.246;9.100;2023-05-08T13:37:57;99162.88;;;20.68;nan
14120;BME280;7138;49.246;9.100;2023-05-08T13:40:24;99161.09;;;20.69;nan
14120;BME280;7138;49.246;9.100;2023-05-08T13:42:51;99150.53;;;20.70;nan
14120;BME280;7138;49.246;9.100;2023-05-08T13:45:17;99159.03;;;20.79;nan